Santa Clarita, CA

10:33 PM PST on February 06, 2016 (GMT -0800)
RAWS | | Change Station
CLOSE
Current Station
Personal Weather Station
Location: Lake Hughes, CA
Elevation: 4625 ft
Nearby Weather Stations

Elev 4625 ft 34.64 °N, 118.41 °W | Updated 6 hours ago

Clear
Clear
44 °F
Feels Like 37 °F
N
19
Wind Variable Wind from NE
Gusts 30 mph

Today
High -- | Low -- °F
--% Chance of Precip.
Yesterday
High -- | Low -- °F
Precip. -- in
Pressure 30.37 in
Visibility 10.0 miles
Clouds Clear
Windchill 37 °F
Dew Point 24 °F
Humidity 45%
Rainfall in
Snow Depth Not available.
6:48 AM 5:27 PM
Waning Crescent, 2% visible
METAR KWJF 070556Z 27004KT 10SM CLR 04/M03 A3034 RMK AO2 SLP284 T00391028 10172 20033 51011
Pressure 30.37 in
Visibility 10.0 miles
Clouds Clear
Windchill 37 °F
Dew Point 24 °F
Humidity 45%
Rainfall in
Snow Depth Not available.
6:48 AM 5:27 PM
Waning Crescent, 2% visible
METAR KWJF 070556Z 27004KT 10SM CLR 04/M03 A3034 RMK AO2 SLP284 T00391028 10172 20033 51011

10-Day Weather Forecast

Almanac

Astronomy

Feb. 06, 2016 Rise Set
Actual Time
Civil Twilight
Nautical Twilight
Astronomical Twilight
Moon
Length of Visible Light
Length of Day
Tomorrow will be .
, % of the Moon is Illuminated

Today's Extremes

State Highs State Lows

Community

WunderPhotos

Upload Photos

1,891,174 photos uploaded!

WunderBlog® & News

Nearby

Air Quality

  Air Quality AQ Index Pollutant
Not available.

Snow Depth

Station Depth Elevation

Earthquake Activity

City Distance Mag. Time & Date
Minimum magnitude displayed is 2.5.

Coastal Water Temperatures

Place Temperature

Stations

Nearby Weather Stations

Station Location Temp. Windchill Dew Point Humidity Wind Precip. Elev Updated Type
                   

Watches & Warnings

There are currently no watches in effect.